createdAt,value
2023-01-21T00:02:32.148Z,13.73
2023-01-21T00:05:34.453Z,14.32
2023-01-21T00:08:36.727Z,12.80
2023-01-21T00:11:39.022Z,13.63
2023-01-21T00:14:41.325Z,13.13
2023-01-21T00:17:44.138Z,12.88
2023-01-21T00:20:46.615Z,10.15
2023-01-21T00:23:48.812Z,14.32
2023-01-21T00:26:51.253Z,12.70
2023-01-21T00:29:53.306Z,13.57
2023-01-21T00:32:55.411Z,12.02
2023-01-21T00:36:08.803Z,11.38
2023-01-21T00:39:11.012Z,13.40
2023-01-21T00:42:13.235Z,10.45
2023-01-21T00:45:15.635Z,9.93
2023-01-21T00:48:17.829Z,12.23
2023-01-21T00:51:20.015Z,12.07
2023-01-21T00:54:22.230Z,11.82
2023-01-21T00:57:24.391Z,10.60
2023-01-21T01:00:26.773Z,13.15
2023-01-21T01:03:29.140Z,12.27
2023-01-21T01:06:31.871Z,12.38
2023-01-21T01:09:34.048Z,11.05
2023-01-21T01:12:36.359Z,10.38
2023-01-21T01:15:38.508Z,10.50
2023-01-21T01:18:40.905Z,10.80
2023-01-21T01:21:43.128Z,12.00
2023-01-21T01:24:46.465Z,11.95
2023-01-21T01:27:48.719Z,12.38
2023-01-21T01:30:50.974Z,10.10
2023-01-21T01:33:53.327Z,10.95
2023-01-21T01:36:55.576Z,12.00
2023-01-21T01:39:57.821Z,9.70
2023-01-21T01:43:00.044Z,11.95
2023-01-21T01:46:02.273Z,8.70
2023-01-21T01:49:17.094Z,11.32
2023-01-21T01:52:20.135Z,9.25
2023-01-21T01:55:23.383Z,10.38
2023-01-21T01:58:25.837Z,9.80
2023-01-21T02:01:28.085Z,9.82
2023-01-21T02:04:38.119Z,9.13
2023-01-21T02:07:44.339Z,9.40
2023-01-21T02:10:46.986Z,9.00
2023-01-21T02:13:54.872Z,10.00
2023-01-21T02:17:24.334Z,8.25
2023-01-21T02:20:57.006Z,8.90
2023-01-21T02:24:21.697Z,7.68
2023-01-21T02:27:42.380Z,6.70
2023-01-21T02:31:13.369Z,6.95
2023-01-21T02:34:56.667Z,6.55
2023-01-21T02:38:15.135Z,7.70
2023-01-21T02:41:36.015Z,5.65
2023-01-21T02:44:41.494Z,5.97
2023-01-21T02:48:06.580Z,6.70
2023-01-21T02:51:08.765Z,5.53
2023-01-21T02:54:33.864Z,6.43
2023-01-21T02:57:49.350Z,4.88
2023-01-21T03:01:03.910Z,4.80
2023-01-21T03:04:27.193Z,4.28
2023-01-21T03:07:34.406Z,4.15
2023-01-21T03:10:43.761Z,4.38
2023-01-21T03:14:19.345Z,3.50
2023-01-21T03:17:47.690Z,3.00
2023-01-21T03:20:56.623Z,2.83
2023-01-21T03:24:00.158Z,3.30
2023-01-21T03:27:05.499Z,2.72
2023-01-21T03:30:17.743Z,3.47
2023-01-21T03:33:22.214Z,2.60
2023-01-21T03:36:33.818Z,3.25
2023-01-21T03:39:58.357Z,2.53
2023-01-21T03:43:00.762Z,4.03
2023-01-21T03:46:25.145Z,2.88
2023-01-21T03:49:38.889Z,3.00
2023-01-21T03:52:42.604Z,3.47
2023-01-21T03:55:44.891Z,2.05
2023-01-21T03:58:47.002Z,2.40
2023-01-21T04:01:49.221Z,2.30
2023-01-21T04:04:53.262Z,1.92
2023-01-21T04:07:55.492Z,2.00
2023-01-21T04:10:57.620Z,1.90
2023-01-21T04:14:00.123Z,1.80
2023-01-21T04:17:02.283Z,1.60
2023-01-21T04:20:04.932Z,2.78
2023-01-21T04:23:07.171Z,2.08
2023-01-21T04:26:09.489Z,2.20
2023-01-21T04:29:11.725Z,1.73
2023-01-21T04:32:14.051Z,2.42
2023-01-21T04:35:16.328Z,1.92
2023-01-21T04:38:18.778Z,1.83
2023-01-21T04:41:20.939Z,1.88
2023-01-21T04:44:23.192Z,2.22
2023-01-21T04:47:25.410Z,1.70
2023-01-21T04:50:27.614Z,2.13
2023-01-21T04:53:29.749Z,1.48
2023-01-21T04:56:31.803Z,1.65
2023-01-21T04:59:34.141Z,1.27
2023-01-21T05:02:36.515Z,1.60
2023-01-21T05:05:38.775Z,2.60
2023-01-21T05:08:40.926Z,1.80
2023-01-21T05:11:43.221Z,2.33
2023-01-21T05:14:45.369Z,2.20
2023-01-21T05:17:47.605Z,1.75
2023-01-21T05:20:49.892Z,1.48
2023-01-21T05:23:52.145Z,1.77
2023-01-21T05:26:54.654Z,3.30
2023-01-21T05:30:00.075Z,1.73
2023-01-21T05:33:02.227Z,1.65
2023-01-21T05:36:05.306Z,3.20
2023-01-21T05:39:07.615Z,1.63
2023-01-21T05:42:09.941Z,2.80
2023-01-21T05:45:12.611Z,2.67
2023-01-21T05:48:14.960Z,2.45
2023-01-21T05:51:17.259Z,1.40
2023-01-21T05:54:19.475Z,1.38
2023-01-21T05:57:21.644Z,1.67
2023-01-21T06:00:23.861Z,1.48
2023-01-21T06:03:26.437Z,1.40
2023-01-21T06:06:28.603Z,1.70
2023-01-21T06:09:30.750Z,1.60
2023-01-21T06:12:33.010Z,1.92
2023-01-21T06:15:35.255Z,1.92
2023-01-21T06:18:37.516Z,2.10
2023-01-21T06:21:39.768Z,1.88
2023-01-21T06:24:41.893Z,2.25
2023-01-21T06:27:44.172Z,2.50
2023-01-21T06:30:47.102Z,1.98
2023-01-21T06:33:49.297Z,2.75
2023-01-21T06:36:52.338Z,1.85
2023-01-21T06:39:54.780Z,2.60
2023-01-21T06:42:56.938Z,2.45
2023-01-21T06:45:59.261Z,2.30
2023-01-21T06:49:01.399Z,2.20
2023-01-21T06:52:04.186Z,2.28
2023-01-21T06:55:06.695Z,2.17
2023-01-21T06:58:08.998Z,1.90
2023-01-21T07:01:11.285Z,2.70
2023-01-21T07:04:13.564Z,2.50
2023-01-21T07:07:15.845Z,2.03
2023-01-21T07:10:18.414Z,2.63
2023-01-21T07:13:21.145Z,1.92
2023-01-21T07:16:23.320Z,3.15
2023-01-21T07:19:25.511Z,2.72
2023-01-21T07:22:27.785Z,2.88
2023-01-21T07:25:30.071Z,2.75
2023-01-21T07:28:32.522Z,3.42
2023-01-21T07:31:34.899Z,2.13
2023-01-21T07:34:37.147Z,2.97
2023-01-21T07:37:39.512Z,2.22
2023-01-21T07:40:41.744Z,2.63
2023-01-21T07:43:43.891Z,2.90
2023-01-21T07:46:46.067Z,2.90
2023-01-21T07:49:49.812Z,1.92
2023-01-21T07:52:54.944Z,2.90
2023-01-21T07:55:57.135Z,2.60
2023-01-21T07:58:59.272Z,2.35
2023-01-21T08:02:01.730Z,2.55
2023-01-21T08:05:04.107Z,2.65
2023-01-21T08:08:06.309Z,3.08
2023-01-21T08:11:08.541Z,3.20
2023-01-21T08:14:10.747Z,5.20
2023-01-21T08:17:13.019Z,2.85
2023-01-21T08:20:15.461Z,4.38
2023-01-21T08:23:17.674Z,3.95
2023-01-21T08:26:19.929Z,3.58
2023-01-21T08:29:22.191Z,3.75
2023-01-21T08:32:24.518Z,4.32
2023-01-21T08:35:26.691Z,5.18
2023-01-21T08:38:29.095Z,5.70
2023-01-21T08:41:31.612Z,5.57
2023-01-21T08:44:35.568Z,6.47
2023-01-21T08:47:37.857Z,4.20
2023-01-21T08:50:40.005Z,4.65
2023-01-21T08:53:42.185Z,4.68
2023-01-21T08:56:44.400Z,5.03
2023-01-21T08:59:46.668Z,4.72
2023-01-21T09:02:51.392Z,4.28
2023-01-21T09:05:54.373Z,4.70
2023-01-21T09:08:57.262Z,4.15
2023-01-21T09:11:59.443Z,4.45
2023-01-21T09:15:01.606Z,6.35
2023-01-21T09:18:04.033Z,4.47
2023-01-21T09:21:07.090Z,5.43
2023-01-21T09:24:09.370Z,6.68
2023-01-21T09:27:11.591Z,3.92
2023-01-21T09:30:14.185Z,4.15
2023-01-21T09:33:16.607Z,3.90
2023-01-21T09:36:21.434Z,4.53
2023-01-21T09:39:23.788Z,4.57
2023-01-21T09:42:31.393Z,3.83
2023-01-21T09:45:33.886Z,4.32
2023-01-21T09:48:42.278Z,5.70
2023-01-21T09:52:02.753Z,5.63
2023-01-21T09:55:07.144Z,4.20
2023-01-21T09:58:40.128Z,5.03
2023-01-21T10:01:43.194Z,4.78
2023-01-21T10:05:25.718Z,4.80
2023-01-21T10:08:33.247Z,3.55
2023-01-21T10:11:41.358Z,4.28
2023-01-21T10:15:21.117Z,4.00
2023-01-21T10:18:30.695Z,5.78
2023-01-21T10:21:38.943Z,3.83
2023-01-21T10:24:54.385Z,4.53
2023-01-21T10:28:22.391Z,4.80
2023-01-21T10:31:40.372Z,4.45
2023-01-21T10:34:51.250Z,4.78
2023-01-21T10:38:13.273Z,4.72
2023-01-21T10:41:43.273Z,4.57
2023-01-21T10:45:03.280Z,4.78
2023-01-21T10:48:17.587Z,5.03
2023-01-21T10:51:37.788Z,5.20
2023-01-21T10:54:51.864Z,5.38
2023-01-21T10:57:59.942Z,7.28
2023-01-21T11:01:24.626Z,4.75
2023-01-21T11:04:28.465Z,4.75
2023-01-21T11:07:36.840Z,5.85
2023-01-21T11:10:40.125Z,5.05
2023-01-21T11:13:42.398Z,4.25
2023-01-21T11:16:47.680Z,6.25
2023-01-21T11:20:00.217Z,5.53
2023-01-21T11:23:06.996Z,7.07
2023-01-21T11:26:23.594Z,7.70
2023-01-21T11:29:26.754Z,6.50
2023-01-21T11:32:31.363Z,6.35
2023-01-21T11:35:33.654Z,8.48
2023-01-21T11:38:37.207Z,6.43
2023-01-21T11:41:39.404Z,6.45
2023-01-21T11:45:29.337Z,7.45
2023-01-21T11:48:31.642Z,6.70
2023-01-21T11:51:35.182Z,6.65
2023-01-21T11:54:40.682Z,5.45
2023-01-21T11:57:42.932Z,9.05
2023-01-21T12:00:47.909Z,7.45
2023-01-21T12:03:53.885Z,5.88
2023-01-21T12:07:00.505Z,6.22
2023-01-21T12:10:20.461Z,6.93
2023-01-21T12:13:47.319Z,7.20
2023-01-21T12:16:52.516Z,5.95
2023-01-21T12:20:11.769Z,5.93
2023-01-21T12:23:46.014Z,6.75
2023-01-21T12:26:57.552Z,6.00
2023-01-21T12:30:18.772Z,9.13
2023-01-21T12:33:44.813Z,7.28
2023-01-21T12:36:58.367Z,8.88
2023-01-21T12:40:09.396Z,6.72
2023-01-21T12:43:33.653Z,6.13
2023-01-21T12:46:41.939Z,13.07
2023-01-21T12:49:50.190Z,6.90
2023-01-21T12:53:25.602Z,9.05
2023-01-21T12:56:40.997Z,7.70
2023-01-21T12:59:50.228Z,7.70
2023-01-21T13:03:14.946Z,8.32
2023-01-21T13:06:17.053Z,9.82
2023-01-21T13:09:42.462Z,8.93
2023-01-21T13:12:49.406Z,9.10
2023-01-21T13:15:57.527Z,8.35
2023-01-21T13:19:00.476Z,8.73
2023-01-21T13:22:07.576Z,8.60
2023-01-21T13:25:33.129Z,7.43
2023-01-21T13:28:35.299Z,8.13
2023-01-21T13:31:49.421Z,9.15
2023-01-21T13:35:20.942Z,8.43
2023-01-21T13:38:50.875Z,8.25
2023-01-21T13:42:30.631Z,8.35
2023-01-21T13:45:59.405Z,7.65
2023-01-21T13:49:08.794Z,8.20
2023-01-21T13:52:25.772Z,7.53
2023-01-21T13:55:30.918Z,8.15
2023-01-21T13:58:58.529Z,7.72
2023-01-21T14:02:31.816Z,8.15
2023-01-21T14:05:49.391Z,8.52
2023-01-21T14:08:54.794Z,9.32
2023-01-21T14:12:05.148Z,7.72
2023-01-21T14:18:21.082Z,7.25
2023-01-21T14:21:41.669Z,10.52
2023-01-21T14:24:49.664Z,7.72
2023-01-21T14:28:09.088Z,7.70
2023-01-21T14:31:15.908Z,7.40
2023-01-21T14:34:49.953Z,6.47
2023-01-21T14:38:15.353Z,8.75
2023-01-21T14:41:17.569Z,8.60
2023-01-21T14:44:45.692Z,7.47
2023-01-21T14:47:58.474Z,8.32
2023-01-21T14:51:06.511Z,8.30
2023-01-21T14:54:25.553Z,8.70
2023-01-21T14:57:37.417Z,7.55
2023-01-21T15:00:46.077Z,8.63
2023-01-21T15:03:50.429Z,8.57
2023-01-21T15:06:57.753Z,9.07
2023-01-21T15:10:02.733Z,9.30
2023-01-21T15:13:25.851Z,8.05
2023-01-21T15:16:35.813Z,8.25
2023-01-21T15:19:38.019Z,9.25
2023-01-21T15:22:41.413Z,7.72
2023-01-21T15:26:08.468Z,7.57
2023-01-21T15:29:36.933Z,8.23
2023-01-21T15:32:44.710Z,9.05
2023-01-21T15:35:47.087Z,8.00
2023-01-21T15:38:50.367Z,9.50
2023-01-21T15:42:24.100Z,8.15
2023-01-21T15:45:36.758Z,7.97
2023-01-21T15:48:42.694Z,8.07
2023-01-21T15:51:47.985Z,9.50
2023-01-21T15:55:16.003Z,8.13
2023-01-21T15:58:37.102Z,8.68
2023-01-21T16:01:40.434Z,9.48
2023-01-21T16:05:39.592Z,10.23
2023-01-21T16:08:47.290Z,7.50
2023-01-21T16:11:59.204Z,8.35
2023-01-21T16:15:08.438Z,9.15
2023-01-21T16:18:13.633Z,8.33
2023-01-21T16:21:20.293Z,9.18
2023-01-21T16:24:27.493Z,9.43
2023-01-21T16:27:31.999Z,10.82
2023-01-21T16:30:34.215Z,8.27
2023-01-21T16:33:36.752Z,7.88
2023-01-21T16:36:40.224Z,9.35
2023-01-21T16:39:43.643Z,9.90
2023-01-21T16:42:46.029Z,8.13
2023-01-21T16:46:02.602Z,8.40
2023-01-21T16:49:13.632Z,10.20
2023-01-21T16:52:20.118Z,8.25
2023-01-21T16:55:26.020Z,9.43
2023-01-21T16:58:32.635Z,9.32
2023-01-21T17:01:35.043Z,11.75
2023-01-21T17:04:37.389Z,10.48
2023-01-21T17:07:49.685Z,9.88
2023-01-21T17:10:58.134Z,12.80
2023-01-21T17:14:07.114Z,12.30
2023-01-21T17:17:09.622Z,11.98
2023-01-21T17:20:41.127Z,10.15
2023-01-21T17:23:53.815Z,9.82
2023-01-21T17:27:17.630Z,9.80
2023-01-21T17:30:30.523Z,10.85
2023-01-21T17:33:32.798Z,11.10
2023-01-21T17:36:40.326Z,10.32
2023-01-21T17:39:51.168Z,8.95
2023-01-21T17:42:53.716Z,10.93
2023-01-21T17:45:57.411Z,10.63
2023-01-21T17:49:06.768Z,10.18
2023-01-21T17:52:19.405Z,11.47
2023-01-21T17:55:29.795Z,12.82
2023-01-21T17:58:31.992Z,14.07
2023-01-21T18:01:34.393Z,10.00
2023-01-21T18:04:36.686Z,10.70
2023-01-21T18:07:38.872Z,10.10
2023-01-21T18:10:41.662Z,10.23
2023-01-21T18:13:44.225Z,10.57
2023-01-21T18:16:46.890Z,10.68
2023-01-21T18:19:49.465Z,12.35
2023-01-21T18:22:53.148Z,11.65
2023-01-21T18:25:55.445Z,12.50
2023-01-21T18:28:57.765Z,11.98
2023-01-21T18:32:00.043Z,10.02
2023-01-21T18:35:02.167Z,11.52
2023-01-21T18:38:06.326Z,11.93
2023-01-21T18:41:10.268Z,14.45
2023-01-21T18:44:13.330Z,12.95
2023-01-21T18:47:17.461Z,14.50
2023-01-21T18:50:22.369Z,15.07
2023-01-21T18:53:25.654Z,15.00
2023-01-21T18:56:28.032Z,17.08
2023-01-21T18:59:30.314Z,15.00
2023-01-21T19:02:32.962Z,15.35
2023-01-21T19:05:38.287Z,18.65
2023-01-21T19:08:40.770Z,15.82
2023-01-21T19:11:42.964Z,17.95
2023-01-21T19:14:46.081Z,16.67
2023-01-21T19:17:49.295Z,17.58
2023-01-21T19:20:51.479Z,15.43
2023-01-21T19:23:54.319Z,16.95
2023-01-21T19:26:56.702Z,19.00
2023-01-21T19:29:58.971Z,19.13
2023-01-21T19:33:01.637Z,18.15
2023-01-21T19:36:11.573Z,16.98
2023-01-21T19:39:20.762Z,16.77
2023-01-21T19:42:22.987Z,18.50
2023-01-21T19:45:28.505Z,20.10
2023-01-21T19:48:30.904Z,15.50
2023-01-21T19:51:33.293Z,16.33
2023-01-21T19:54:35.476Z,16.25
2023-01-21T19:57:38.451Z,19.50
2023-01-21T20:00:41.517Z,20.42
2023-01-21T20:03:58.513Z,24.25
2023-01-21T20:07:02.300Z,22.63
2023-01-21T20:10:19.537Z,22.95
2023-01-21T20:13:22.333Z,19.95
2023-01-21T20:16:26.541Z,22.60
2023-01-21T20:19:29.078Z,21.25
2023-01-21T20:22:31.249Z,19.85
2023-01-21T20:25:37.747Z,18.20
2023-01-21T20:28:47.851Z,20.33
2023-01-21T20:31:52.037Z,18.27
2023-01-21T20:34:54.311Z,19.40
2023-01-21T20:37:57.162Z,21.27
2023-01-21T20:41:00.562Z,20.08
2023-01-21T20:44:03.806Z,19.27
2023-01-21T20:47:06.071Z,20.83
2023-01-21T20:50:21.056Z,18.00
2023-01-21T20:53:23.228Z,16.27
2023-01-21T20:56:31.523Z,17.60
2023-01-21T20:59:34.632Z,17.52
2023-01-21T21:02:36.872Z,20.65
2023-01-21T21:05:39.163Z,15.52
2023-01-21T21:08:41.946Z,16.67
2023-01-21T21:11:44.163Z,18.52
2023-01-21T21:14:46.385Z,18.58
2023-01-21T21:17:49.113Z,16.73
2023-01-21T21:20:52.452Z,16.42
2023-01-21T21:23:54.695Z,19.55
2023-01-21T21:26:56.990Z,15.82
2023-01-21T21:29:59.379Z,19.58
2023-01-21T21:33:02.267Z,18.50
2023-01-21T21:36:04.817Z,14.15
2023-01-21T21:39:07.541Z,17.60
2023-01-21T21:42:30.704Z,16.10
2023-01-21T21:45:32.909Z,17.60
2023-01-21T21:48:38.050Z,17.10
2023-01-21T21:51:40.366Z,16.42
2023-01-21T21:54:42.981Z,16.98
2023-01-21T21:57:45.150Z,17.77
2023-01-21T22:00:47.414Z,20.25
2023-01-21T22:03:50.244Z,15.27
2023-01-21T22:06:52.509Z,15.63
2023-01-21T22:09:54.702Z,17.52
2023-01-21T22:12:56.885Z,13.82
2023-01-21T22:16:01.014Z,16.58
2023-01-21T22:19:03.329Z,16.63
2023-01-21T22:22:07.055Z,18.20
2023-01-21T22:25:11.903Z,18.30
2023-01-21T22:28:14.110Z,14.93
2023-01-21T22:31:24.736Z,15.23
2023-01-21T22:34:27.078Z,16.05
2023-01-21T22:37:29.652Z,15.50
2023-01-21T22:40:34.093Z,15.90
2023-01-21T22:43:38.995Z,14.43
2023-01-21T22:46:41.279Z,13.75
2023-01-21T22:49:43.566Z,14.35
2023-01-21T22:52:45.911Z,13.93
2023-01-21T22:56:02.680Z,16.40
2023-01-21T22:59:05.062Z,15.63
2023-01-21T23:02:07.565Z,14.55
2023-01-21T23:05:10.050Z,16.73
2023-01-21T23:08:12.974Z,13.48
2023-01-21T23:11:16.503Z,11.40
2023-01-21T23:14:19.838Z,13.85
2023-01-21T23:17:22.292Z,14.48
2023-01-21T23:20:29.011Z,13.55
2023-01-21T23:23:36.235Z,14.73
2023-01-21T23:26:39.087Z,14.02
2023-01-21T23:29:41.902Z,12.75
2023-01-21T23:32:44.429Z,16.63
2023-01-21T23:35:47.848Z,15.15
2023-01-21T23:38:50.396Z,16.08
2023-01-21T23:41:52.878Z,14.40
2023-01-21T23:44:55.285Z,16.65
2023-01-21T23:47:57.582Z,14.73
2023-01-21T23:51:08.550Z,13.65
2023-01-21T23:54:12.326Z,13.30
2023-01-21T23:57:15.077Z,13.68
